Time;durP1;ratioP1;P1;durP2;ratioP2;P2;SDS_P1;SDS_P2;PMS_P1;PMS_P2;Temp;Humidity;BMP_temperature;BMP_pressure;BME280_temperature;BME280_humidity;BME280_pressure;Samples;Min_cycle;Max_cycle;Signal;HPM_P1;HPM_P2
2021/01/11 00:00:22;;;;;;;8.90;7.23;;;-4.70;99.90;-6.40;96998.00;;;;5066368;28;20429;-64
2021/01/11 00:02:51;;;;;;;9.00;6.37;;;-4.70;99.90;-6.40;97004.00;;;;5062392;22;20589;-66
2021/01/11 00:05:19;;;;;;;8.90;6.33;;;-4.70;99.90;-6.40;97003.00;;;;5047558;28;20722;-66
2021/01/11 00:07:48;;;;;;;8.63;6.43;;;-4.70;99.90;-6.40;96997.00;;;;5046284;28;20949;-66
2021/01/11 00:10:16;;;;;;;7.87;6.00;;;-4.70;99.90;-6.40;96987.00;;;;5048664;28;20512;-66
2021/01/11 00:12:45;;;;;;;8.10;6.47;;;-4.70;99.90;-6.40;96992.00;;;;5050332;28;20451;-66
2021/01/11 00:15:15;;;;;;;10.07;6.17;;;-4.70;99.90;-6.40;96975.00;;;;5050414;28;20415;-66
2021/01/11 00:17:44;;;;;;;9.80;6.90;;;-4.70;99.90;-6.50;96978.00;;;;5049501;28;20950;-66
2021/01/11 00:20:13;;;;;;;10.43;6.70;;;-4.80;99.90;-6.50;96984.00;;;;5050418;28;20477;-65
2021/01/11 00:22:43;;;;;;;9.63;6.70;;;-4.70;99.90;-6.50;96981.00;;;;5049951;28;20962;-65
2021/01/11 00:25:13;;;;;;;8.03;6.13;;;-4.80;99.90;-6.50;96979.00;;;;5050450;28;20518;-65
2021/01/11 00:27:42;;;;;;;8.17;5.53;;;-4.80;99.90;-6.50;96993.00;;;;5049512;28;20462;-65
2021/01/11 00:30:11;;;;;;;8.43;5.83;;;-4.80;99.90;-6.60;96984.00;;;;5050457;28;20475;-65
2021/01/11 00:32:40;;;;;;;7.93;6.20;;;-4.80;99.90;-6.70;96990.00;;;;5050445;28;20888;-64
2021/01/11 00:35:09;;;;;;;10.83;7.30;;;-4.90;99.90;-6.70;96980.00;;;;5050169;28;20434;-65
2021/01/11 00:37:37;;;;;;;10.00;6.50;;;-4.90;99.90;-6.80;96975.00;;;;5049368;28;20431;-66
2021/01/11 00:40:07;;;;;;;7.60;5.50;;;-4.90;99.90;-6.90;96981.00;;;;5050140;28;20419;-66
2021/01/11 00:42:37;;;;;;;8.17;5.57;;;-5.00;99.90;-7.00;96992.00;;;;5049637;28;21192;-65
2021/01/11 00:45:07;;;;;;;9.97;6.83;;;-5.10;99.90;-6.90;96987.00;;;;5050509;28;20419;-65
2021/01/11 00:47:38;;;;;;;9.03;6.30;;;-5.10;99.90;-6.90;96979.00;;;;5049253;28;20427;-66
2021/01/11 00:50:07;;;;;;;10.30;6.17;;;-5.20;99.90;-7.00;96992.00;;;;5050097;28;20419;-65
2021/01/11 00:52:36;;;;;;;7.07;5.60;;;-5.20;99.90;-7.10;96985.00;;;;5049584;28;20486;-65
2021/01/11 00:55:06;;;;;;;6.33;5.33;;;-5.10;99.90;-7.20;96997.00;;;;5049946;28;20431;-66
2021/01/11 00:57:35;;;;;;;8.80;6.07;;;-5.30;99.90;-7.20;96992.00;;;;5049699;28;20485;-66
2021/01/11 01:00:05;;;;;;;8.20;5.77;;;-5.30;99.90;-7.20;96990.00;;;;5050010;28;20424;-66
2021/01/11 01:02:33;;;;;;;8.33;5.73;;;-5.30;99.90;-7.20;96989.00;;;;5049786;28;20458;-66
2021/01/11 01:05:00;;;;;;;6.40;5.47;;;-5.40;99.90;-7.20;96996.00;;;;5049981;28;20432;-67
2021/01/11 01:07:28;;;;;;;6.93;6.00;;;-5.40;99.90;-7.30;96981.00;;;;5048814;28;20419;-66
2021/01/11 01:09:56;;;;;;;6.80;5.90;;;-5.40;99.90;-7.40;96997.00;;;;5050709;28;20956;-65
2021/01/11 01:12:24;;;;;;;8.50;4.93;;;-5.50;99.90;-7.40;96989.00;;;;5052786;28;20871;-65
2021/01/11 01:14:52;;;;;;;7.83;5.33;;;-5.50;99.90;-7.40;96988.00;;;;5053729;28;20435;-65
2021/01/11 01:17:20;;;;;;;6.97;5.50;;;-5.60;99.90;-7.40;97001.00;;;;5052670;28;20927;-65
2021/01/11 01:19:48;;;;;;;8.50;5.57;;;-5.60;99.90;-7.60;97001.00;;;;5053359;28;20427;-66
2021/01/11 01:22:16;;;;;;;11.03;5.80;;;-5.00;99.90;-7.60;97001.00;;;;5052535;28;20879;-67
2021/01/11 01:24:43;;;;;;;7.03;5.47;;;-5.70;99.90;-7.70;96996.00;;;;5053387;28;20437;-65
2021/01/11 01:27:11;;;;;;;9.63;5.83;;;-5.40;99.90;-7.70;96990.00;;;;5052589;28;20991;-65
2021/01/11 01:29:39;;;;;;;7.37;5.17;;;-5.80;99.90;-7.70;96986.00;;;;5053082;28;20434;-65
2021/01/11 01:32:07;;;;;;;8.03;5.07;;;-5.80;99.90;-7.80;96988.00;;;;5052872;28;20529;-67
2021/01/11 01:34:35;;;;;;;5.73;5.10;;;-5.90;99.90;-7.80;96987.00;;;;5053099;28;20445;-66
2021/01/11 01:37:03;;;;;;;7.07;4.87;;;-5.90;99.90;-7.80;96987.00;;;;5052496;28;20423;-65
2021/01/11 01:39:30;;;;;;;7.13;5.60;;;-5.90;99.90;-7.70;96997.00;;;;5052936;28;20488;-66
2021/01/11 01:41:58;;;;;;;6.57;4.70;;;-5.90;99.90;-7.70;96990.00;;;;5052903;28;20505;-66
2021/01/11 01:44:25;;;;;;;4.50;4.10;;;-5.90;99.90;-7.70;96973.00;;;;5052736;28;20439;-64
2021/01/11 01:46:53;;;;;;;7.30;6.50;;;-5.90;99.90;-7.80;96982.00;;;;5052213;28;20431;-68
2021/01/11 01:49:22;;;;;;;6.67;4.83;;;-5.90;99.90;-7.90;96980.00;;;;5052406;28;21129;-66
2021/01/11 01:51:50;;;;;;;8.20;5.53;;;-6.00;99.90;-7.80;96986.00;;;;5052664;28;20834;-65
2021/01/11 01:54:18;;;;;;;6.57;4.50;;;-6.00;99.90;-7.70;96984.00;;;;5052519;28;20447;-66
2021/01/11 01:56:46;;;;;;;9.33;5.87;;;-6.00;99.90;-7.90;96993.00;;;;5052515;28;20538;-66
2021/01/11 01:59:15;;;;;;;6.73;5.47;;;-6.00;99.90;-8.00;96977.00;;;;5052284;28;20485;-65
2021/01/11 02:01:44;;;;;;;7.10;5.40;;;-6.10;99.90;-8.10;96973.00;;;;5052595;28;20454;-65
2021/01/11 02:04:12;;;;;;;5.73;4.10;;;-6.10;99.90;-8.20;96980.00;;;;5052628;28;20957;-67
2021/01/11 02:06:43;;;;;;;4.80;4.27;;;-6.20;99.90;-8.10;96971.00;;;;5052331;28;20788;-66
2021/01/11 02:09:19;;;;;;;7.13;5.00;;;-6.20;99.90;-8.10;96965.00;;;;5051944;28;20456;-67
2021/01/11 02:11:55;;;;;;;6.63;4.43;;;-6.30;99.90;-8.10;96978.00;;;;5052057;28;20471;-67
2021/01/11 02:14:40;;;;;;;5.00;4.50;;;-6.30;99.90;-8.20;96979.00;;;;5052247;28;20530;-67
2021/01/11 02:17:16;;;;;;;7.33;5.70;;;-6.30;99.90;-8.40;96979.00;;;;5051608;28;20451;-66
2021/01/11 02:20:27;;;;;;;7.70;4.93;;;-6.40;99.90;-8.30;96988.00;;;;5052655;28;20472;-64
2021/01/11 02:23:14;;;;;;;6.07;4.70;;;-6.40;99.90;-8.30;96968.00;;;;5051507;28;20538;-67
2021/01/11 02:25:43;;;;;;;7.37;4.77;;;-6.50;99.90;-8.40;96975.00;;;;5052263;28;20423;-67
2021/01/11 02:28:37;;;;;;;6.37;4.23;;;-6.50;99.90;-8.50;96976.00;;;;5051422;28;20510;-67
2021/01/11 02:31:07;;;;;;;5.00;4.45;;;-6.50;99.90;-8.50;96976.00;;;;5052095;28;20463;-66
2021/01/11 02:33:36;;;;;;;6.83;4.97;;;-6.60;99.90;-8.60;96969.00;;;;5051375;28;20607;-66
2021/01/11 02:36:07;;;;;;;7.90;4.80;;;-6.60;99.90;-8.70;96964.00;;;;5052124;28;20503;-66
2021/01/11 02:38:37;;;;;;;7.28;5.35;;;-6.70;99.90;-8.90;96963.00;;;;5051257;28;20228;-66
2021/01/11 02:41:05;;;;;;;5.55;4.75;;;-6.80;99.90;-8.80;96965.00;;;;5051913;28;20196;-66
2021/01/11 02:43:33;;;;;;;6.05;4.30;;;-6.90;99.90;-8.80;96961.00;;;;5051583;28;20556;-67
2021/01/11 02:46:01;;;;;;;7.35;4.93;;;-6.90;99.90;-8.80;96969.00;;;;5052070;28;20192;-67
2021/01/11 02:48:35;;;;;;;6.45;4.40;;;-6.90;99.90;-8.90;96958.00;;;;5050487;28;20250;-67
2021/01/11 02:51:16;;;;;;;7.35;5.43;;;-6.90;99.90;-8.90;96957.00;;;;5051861;28;20706;-67
2021/01/11 02:53:56;;;;;;;5.40;4.43;;;-7.00;99.90;-8.90;96967.00;;;;5051225;28;20247;-65
2021/01/11 02:56:33;;;;;;;5.18;4.53;;;-7.00;99.90;-8.90;96961.00;;;;5051856;28;20200;-65
2021/01/11 02:59:09;;;;;;;3.60;3.35;;;-7.00;99.90;-9.00;96959.00;;;;5050967;28;20193;-66
2021/01/11 03:01:48;;;;;;;7.07;5.10;;;-7.00;99.90;-9.00;96957.00;;;;5051424;28;20287;-66
2021/01/11 03:04:23;;;;;;;4.68;3.45;;;-7.00;99.90;-8.90;96953.00;;;;5049193;28;20585;-66
2021/01/11 03:06:55;;;;;;;4.18;3.72;;;-7.00;99.90;-8.80;96961.00;;;;5069033;28;20670;-66
2021/01/11 03:09:23;;;;;;;5.60;4.03;;;-7.00;99.90;-8.90;96959.00;;;;5069806;28;20192;-66
2021/01/11 03:11:51;;;;;;;5.32;4.10;;;-7.00;99.90;-9.00;96979.00;;;;5069250;28;20212;-67
2021/01/11 03:14:20;;;;;;;3.95;3.55;;;-7.00;99.90;-8.70;96965.00;;;;5070245;28;20223;-67
2021/01/11 03:16:47;;;;;;;4.82;3.72;;;-7.00;99.90;-8.80;96954.00;;;;5071049;28;20655;-67
2021/01/11 03:19:15;;;;;;;6.45;5.18;;;-7.00;99.90;-8.80;96955.00;;;;5070652;28;20868;-65
2021/01/11 03:21:44;;;;;;;5.30;4.32;;;-6.90;99.90;-8.90;96963.00;;;;5071098;28;20689;-67
2021/01/11 03:24:15;;;;;;;10.15;6.07;;;-6.90;99.90;-9.00;96952.00;;;;5070654;28;20212;-67
2021/01/11 03:26:43;;;;;;;8.38;5.57;;;-7.00;99.90;-9.10;96964.00;;;;5070918;28;20192;-67
2021/01/11 03:29:11;;;;;;;9.98;5.93;;;-7.00;99.90;-9.10;96959.00;;;;5070645;28;20192;-67
2021/01/11 03:31:40;;;;;;;6.03;4.25;;;-7.10;99.90;-9.10;96956.00;;;;5071064;28;20211;-67
2021/01/11 03:34:09;;;;;;;8.88;5.72;;;-7.20;99.90;-9.10;96954.00;;;;5070280;28;20261;-67
2021/01/11 03:36:37;;;;;;;6.13;5.00;;;-7.20;99.90;-9.20;96948.00;;;;5071038;28;20191;-67
2021/01/11 03:39:08;;;;;;;7.28;4.72;;;-7.20;99.90;-9.20;96952.00;;;;5070336;28;20226;-65
2021/01/11 03:41:37;;;;;;;7.30;4.97;;;-7.20;99.90;-9.20;96951.00;;;;5070598;28;20679;-67
2021/01/11 03:44:06;;;;;;;6.72;5.25;;;-7.30;99.90;-9.20;96948.00;;;;5070676;28;20650;-67
2021/01/11 03:46:34;;;;;;;7.03;4.50;;;-7.30;99.90;-9.30;96942.00;;;;5064737;28;20185;-67
2021/01/11 03:49:02;;;;;;;6.22;4.30;;;-7.30;99.90;-9.30;96947.00;;;;5050118;28;20710;-66
2021/01/11 03:51:30;;;;;;;3.97;3.38;;;-7.30;99.90;-9.30;96947.00;;;;5050903;28;20208;-66
2021/01/11 03:53:58;;;;;;;5.03;3.92;;;-7.30;99.90;-9.30;96948.00;;;;5050074;28;20270;-66
2021/01/11 03:56:27;;;;;;;4.05;3.42;;;-7.40;99.90;-9.30;96942.00;;;;5050928;28;20250;-67
2021/01/11 03:58:54;;;;;;;6.20;4.90;;;-7.40;99.90;-9.30;96951.00;;;;5049575;28;20224;-66
2021/01/11 04:01:22;;;;;;;5.78;4.97;;;-7.40;99.90;-9.50;96936.00;;;;5049312;28;20200;-67
2021/01/11 04:03:50;;;;;;;5.07;4.00;;;-7.40;99.90;-9.40;96943.00;;;;5048310;28;20291;-67
2021/01/11 04:06:21;;;;;;;6.43;5.18;;;-7.50;99.90;-9.40;96945.00;;;;5048780;28;20224;-67
2021/01/11 04:08:49;;;;;;;6.32;4.65;;;-7.50;99.90;-9.50;96946.00;;;;5047786;28;20200;-67
2021/01/11 04:11:19;;;;;;;5.28;4.10;;;-7.50;99.90;-9.50;96951.00;;;;5048476;28;20296;-67
2021/01/11 04:13:48;;;;;;;3.00;2.65;;;-7.50;99.90;-9.50;96948.00;;;;5048072;28;20240;-67
2021/01/11 04:16:16;;;;;;;7.82;5.03;;;-7.50;99.90;-9.60;96944.00;;;;5048496;28;20272;-67
2021/01/11 04:18:44;;;;;;;6.95;4.93;;;-7.50;99.90;-9.60;96945.00;;;;5048029;28;20234;-67
2021/01/11 04:21:13;;;;;;;5.40;3.78;;;-7.60;99.90;-9.80;96950.00;;;;5048716;28;20219;-67
2021/01/11 04:23:40;;;;;;;6.90;4.47;;;-7.70;99.90;-9.50;96953.00;;;;5048097;28;20216;-66
2021/01/11 04:26:09;;;;;;;7.25;3.67;;;-7.70;99.90;-9.50;96961.00;;;;5048329;28;20193;-67
2021/01/11 04:28:37;;;;;;;5.60;3.60;;;-7.60;99.90;-9.60;96958.00;;;;5048020;28;20193;-67
2021/01/11 04:31:08;;;;;;;5.88;4.10;;;-7.60;99.90;-9.40;96958.00;;;;5048639;28;20281;-67
2021/01/11 04:33:35;;;;;;;4.75;4.03;;;-7.60;99.90;-9.40;96956.00;;;;5048080;28;20295;-67
2021/01/11 04:36:04;;;;;;;5.13;3.33;;;-7.60;99.90;-9.40;96953.00;;;;5048358;28;20892;-65
2021/01/11 04:38:32;;;;;;;4.13;3.38;;;-7.60;99.90;-9.50;96957.00;;;;5047515;28;20196;-66
2021/01/11 04:41:01;;;;;;;4.20;3.75;;;-7.60;99.90;-9.70;96964.00;;;;5048594;28;20216;-67
2021/01/11 04:43:32;;;;;;;5.38;4.00;;;-7.60;99.90;-9.90;96955.00;;;;5047560;28;20212;-67
2021/01/11 04:46:00;;;;;;;5.78;4.28;;;-7.70;99.90;-9.80;96959.00;;;;5050506;28;20237;-67
2021/01/11 04:48:30;;;;;;;6.07;3.72;;;-7.80;99.90;-9.70;96959.00;;;;5051261;28;20200;-67
2021/01/11 04:50:58;;;;;;;4.72;4.13;;;-7.80;99.90;-9.60;96958.00;;;;5052160;28;20200;-65
2021/01/11 04:53:28;;;;;;;5.47;3.08;;;-7.80;99.90;-9.50;96956.00;;;;5051163;28;20226;-65
2021/01/11 04:55:58;;;;;;;4.72;3.70;;;-7.70;99.90;-9.60;96948.00;;;;5052066;28;20583;-66
2021/01/11 04:58:26;;;;;;;5.78;3.65;;;-7.70;99.90;-9.60;96951.00;;;;5051115;28;20216;-67
2021/01/11 05:01:00;;;;;;;6.30;4.05;;;-7.70;99.90;-9.90;96954.00;;;;5051086;28;20614;-66
2021/01/11 05:03:30;;;;;;;3.78;3.25;;;-7.80;99.90;-10.20;96947.00;;;;5051536;28;20208;-66
2021/01/11 05:06:00;;;;;;;4.00;3.50;;;-7.90;99.90;-10.40;96948.00;;;;5051792;28;20199;-65
2021/01/11 05:08:28;;;;;;;5.63;3.30;;;-8.10;99.90;-10.20;96941.00;;;;5050980;28;20197;-66
2021/01/11 05:10:55;;;;;;;4.13;3.55;;;-8.20;99.90;-10.20;96949.00;;;;5051328;28;20677;-67
2021/01/11 05:13:23;;;;;;;4.70;3.80;;;-8.20;99.90;-10.40;96949.00;;;;5051479;28;20278;-67
2021/01/11 05:15:50;;;;;;;4.72;3.47;;;-8.20;99.90;-10.60;96944.00;;;;5051711;28;20197;-64
2021/01/11 05:18:20;;;;;;;6.07;4.85;;;-8.40;99.90;-10.50;96948.00;;;;5051030;28;20184;-65
2021/01/11 05:20:49;;;;;;;5.00;3.92;;;-8.50;99.90;-10.40;96951.00;;;;5051564;28;20221;-65
2021/01/11 05:23:17;;;;;;;5.78;4.22;;;-8.50;99.90;-10.30;96951.00;;;;5051351;28;20247;-65
2021/01/11 05:25:46;;;;;;;5.53;4.53;;;-8.40;99.90;-10.30;96947.00;;;;5051475;28;20199;-65
2021/01/11 05:28:15;;;;;;;7.40;4.20;;;-8.40;99.90;-10.20;96953.00;;;;5051359;28;20220;-66
2021/01/11 05:30:45;;;;;;;6.55;4.10;;;-8.30;99.90;-10.00;96959.00;;;;5050912;28;20577;-66
2021/01/11 05:33:18;;;;;;;5.28;4.03;;;-8.30;99.90;-9.90;96962.00;;;;5050714;28;20227;-66
2021/01/11 05:36:02;;;;;;;5.78;3.88;;;-8.20;99.90;-9.90;96961.00;;;;5051222;28;20204;-65
2021/01/11 05:38:43;;;;;;;6.15;5.55;;;-8.10;99.90;-10.00;96951.00;;;;5050657;28;20271;-65
2021/01/11 05:41:16;;;;;;;7.80;6.05;;;-8.10;99.90;-10.20;96942.00;;;;5050868;28;20981;-66
2021/01/11 05:43:46;;;;;;;7.07;5.22;;;-8.10;99.90;-10.10;96943.00;;;;5050350;28;20216;-64
2021/01/11 05:46:25;;;;;;;5.63;4.28;;;-8.20;99.90;-10.10;96947.00;;;;5048972;28;20278;-66
2021/01/11 05:49:03;;;;;;;4.90;3.85;;;-8.20;99.90;-10.10;96949.00;;;;5048348;28;20266;-66
2021/01/11 05:51:33;;;;;;;6.88;4.53;;;-8.10;99.90;-10.10;96949.00;;;;5048604;28;20605;-66
2021/01/11 05:54:02;;;;;;;5.35;4.43;;;-8.20;99.90;-10.00;96958.00;;;;5049009;28;20232;-65
2021/01/11 05:56:54;;;;;;;4.28;3.75;;;-8.10;99.90;-10.00;96953.00;;;;5048831;28;20217;-67
2021/01/11 05:59:23;;;;;;;5.78;4.60;;;-8.10;99.90;-10.10;96950.00;;;;5048663;28;20303;-67
2021/01/11 06:01:51;;;;;;;4.85;3.70;;;-8.10;99.90;-10.10;96954.00;;;;5048640;28;20231;-65
2021/01/11 06:04:18;;;;;;;8.68;4.53;;;-8.10;99.90;-10.00;96954.00;;;;5049022;28;20229;-64
2021/01/11 06:06:48;;;;;;;9.65;4.18;;;-8.10;99.90;-10.10;96953.00;;;;5048592;28;20220;-65
2021/01/11 06:09:17;;;;;;;5.47;4.10;;;-8.10;99.90;-10.10;96950.00;;;;5048090;28;20216;-66
2021/01/11 06:11:47;;;;;;;10.50;6.63;;;-8.20;99.90;-10.30;96954.00;;;;5048445;28;20289;-66
2021/01/11 06:14:19;;;;;;;6.05;4.13;;;-8.20;99.90;-10.20;96960.00;;;;5040932;28;20224;-66
2021/01/11 06:16:47;;;;;;;5.75;4.90;;;-8.20;99.90;-10.20;96954.00;;;;5044074;28;20662;-66
2021/01/11 06:19:15;;;;;;;5.38;4.78;;;-8.20;99.90;-10.10;96953.00;;;;5044624;28;20235;-65
2021/01/11 06:21:50;;;;;;;5.45;4.65;;;-8.20;99.90;-10.10;96947.00;;;;5047221;28;20238;-67
2021/01/11 06:24:19;;;;;;;5.47;4.78;;;-8.20;99.90;-9.90;96963.00;;;;5048163;28;20263;-66
2021/01/11 06:26:47;;;;;;;6.35;4.18;;;-8.20;99.90;-9.90;96959.00;;;;5045846;28;20225;-66
2021/01/11 06:29:29;;;;;;;4.32;3.67;;;-8.10;99.90;-10.10;96954.00;;;;5047187;28;20236;-66
2021/01/11 06:31:58;;;;;;;5.95;4.55;;;-8.10;99.90;-10.20;96959.00;;;;5047541;28;20306;-66
2021/01/11 06:34:35;;;;;;;6.20;4.45;;;-8.10;99.90;-10.40;96953.00;;;;5048079;28;20232;-66
2021/01/11 06:37:17;;;;;;;6.93;4.93;;;-8.20;99.90;-10.40;96953.00;;;;5047090;28;20228;-66
2021/01/11 06:39:46;;;;;;;6.22;4.53;;;-8.30;99.90;-10.30;96958.00;;;;5047576;28;20228;-66
2021/01/11 06:42:15;;;;;;;6.88;4.07;;;-8.30;99.90;-10.30;96964.00;;;;5046928;28;20358;-65
2021/01/11 06:44:48;;;;;;;7.13;3.78;;;-8.30;99.90;-10.20;96965.00;;;;5047675;28;20271;-64
2021/01/11 06:47:27;;;;;;;5.43;3.83;;;-8.30;99.90;-10.10;96967.00;;;;5047682;28;20239;-66
2021/01/11 06:50:05;;;;;;;6.15;4.25;;;-8.20;99.90;-10.20;96969.00;;;;5048324;28;20324;-65
2021/01/11 06:52:37;;;;;;;5.85;4.43;;;-8.20;99.90;-10.30;96976.00;;;;5047485;28;20256;-66
2021/01/11 06:55:12;;;;;;;5.82;4.88;;;-8.30;99.90;-10.30;96981.00;;;;5048188;28;20772;-67
2021/01/11 06:57:40;;;;;;;7.20;4.28;;;-8.30;99.90;-10.20;96973.00;;;;5047149;28;20318;-66
2021/01/11 07:00:10;;;;;;;7.30;5.13;;;-8.30;99.90;-10.20;96972.00;;;;5048251;28;20833;-66
2021/01/11 07:02:42;;;;;;;5.35;4.13;;;-8.30;99.90;-10.20;96971.00;;;;5047454;28;20236;-66
2021/01/11 07:05:47;;;;;;;6.13;5.25;;;-8.30;99.90;-10.00;96965.00;;;;5047447;28;20252;-66
2021/01/11 07:08:21;;;;;;;9.25;5.30;;;-8.20;99.90;-10.20;96974.00;;;;5046396;28;20695;-65
2021/01/11 07:11:04;;;;;;;7.57;4.32;;;-8.20;99.90;-10.10;96972.00;;;;5047536;28;20227;-66
2021/01/11 07:13:32;;;;;;;5.25;4.15;;;-8.20;99.90;-9.90;96976.00;;;;5047667;28;20783;-65
2021/01/11 07:16:19;;;;;;;5.47;4.97;;;-8.10;99.90;-10.10;96970.00;;;;5047545;28;20254;-66
2021/01/11 07:18:48;;;;;;;5.65;4.25;;;-8.10;99.90;-10.00;96973.00;;;;5044044;28;20220;-66
2021/01/11 07:21:23;;;;;;;5.22;3.92;;;-8.10;99.90;-10.00;96971.00;;;;5045307;28;20279;-64
2021/01/11 07:23:53;;;;;;;8.05;4.68;;;-8.10;99.90;-10.00;96982.00;;;;5047693;28;20675;-65
2021/01/11 07:26:23;;;;;;;6.75;4.43;;;-8.10;99.90;-9.90;96978.00;;;;5043473;28;20699;-61
2021/01/11 07:28:57;;;;;;;7.10;5.90;;;-8.00;99.90;-10.00;96980.00;;;;5046324;28;20286;-67
2021/01/11 07:31:28;;;;;;;12.23;6.97;;;-8.00;99.90;-10.00;96978.00;;;;5046694;28;20235;-66
2021/01/11 07:34:15;;;;;;;9.55;6.07;;;-8.00;99.90;-10.00;96972.00;;;;5038657;28;20307;-66
2021/01/11 07:36:47;;;;;;;7.65;5.35;;;-8.00;99.90;-9.80;96973.00;;;;5045561;28;20231;-65
2021/01/11 07:39:19;;;;;;;7.10;4.45;;;-8.00;99.90;-9.60;96985.00;;;;5047093;28;20710;-65
2021/01/11 07:41:49;;;;;;;7.30;4.95;;;-7.90;99.90;-9.60;96999.00;;;;5046827;28;20220;-67
2021/01/11 07:44:20;;;;;;;5.20;4.28;;;-7.80;99.90;-9.40;96990.00;;;;5046995;28;20228;-64
2021/01/11 07:46:57;;;;;;;8.43;6.03;;;-7.70;99.90;-9.40;96999.00;;;;5047058;28;20661;-66
2021/01/11 07:49:27;;;;;;;6.80;5.72;;;-7.60;99.90;-9.40;97002.00;;;;5043718;28;20273;-65
2021/01/11 07:52:01;;;;;;;4.43;4.03;;;-7.60;99.90;-9.40;97002.00;;;;5044506;28;20711;-66
2021/01/11 07:54:33;;;;;;;7.38;5.93;;;-7.50;99.90;-9.10;97000.00;;;;5046044;28;20270;-66
2021/01/11 07:57:01;;;;;;;7.25;5.03;;;-7.40;99.90;-9.00;97004.00;;;;5045415;28;20228;-66
2021/01/11 07:59:31;;;;;;;5.47;4.55;;;-7.30;99.90;-8.80;97018.00;;;;5046215;28;20216;-67
2021/01/11 08:02:01;;;;;;;6.18;5.53;;;-7.20;99.90;-8.80;97011.00;;;;5040586;28;20212;-67
2021/01/11 08:04:35;;;;;;;11.40;6.65;;;-7.10;99.90;-8.90;97021.00;;;;5046385;28;20228;-66
2021/01/11 08:07:07;;;;;;;6.25;5.65;;;-7.00;99.90;-8.90;97017.00;;;;5045568;28;20227;-64
2021/01/11 08:09:37;;;;;;;6.15;5.32;;;-7.00;99.90;-8.80;97011.00;;;;5046221;28;20224;-63
2021/01/11 08:12:11;;;;;;;7.32;4.70;;;-7.00;99.90;-8.60;97013.00;;;;5046352;28;20228;-64
2021/01/11 08:14:39;;;;;;;4.40;3.97;;;-6.90;99.90;-8.40;97021.00;;;;5046348;28;20232;-64
2021/01/11 08:17:13;;;;;;;5.50;5.00;;;-6.80;99.90;-8.30;97024.00;;;;5046265;28;20340;-65
2021/01/11 08:19:42;;;;;;;7.93;4.80;;;-6.70;99.90;-8.40;97032.00;;;;5028330;28;20236;-65
2021/01/11 08:22:11;;;;;;;5.07;3.85;;;-6.60;99.90;-8.40;97030.00;;;;5030881;28;20290;-65
2021/01/11 08:24:42;;;;;;;4.88;4.30;;;-6.60;99.90;-8.10;97027.00;;;;5048314;28;20228;-64
2021/01/11 08:27:18;;;;;;;5.18;4.63;;;-6.50;99.90;-8.20;97024.00;;;;5050166;28;20232;-62
2021/01/11 08:29:46;;;;;;;5.43;3.75;;;-6.50;99.90;-8.10;97026.00;;;;5050493;28;20622;-64
2021/01/11 08:32:17;;;;;;;4.68;4.00;;;-6.40;99.90;-8.30;97019.00;;;;5050663;28;20232;-64
2021/01/11 08:34:47;;;;;;;8.27;4.82;;;-6.40;99.90;-8.30;97032.00;;;;5050630;28;20309;-65
2021/01/11 08:37:23;;;;;;;5.00;4.07;;;-6.40;99.90;-8.10;97022.00;;;;5050328;28;20224;-65
2021/01/11 08:39:58;;;;;;;7.45;5.07;;;-6.30;99.90;-8.00;97029.00;;;;5050607;28;20512;-65
2021/01/11 08:42:26;;;;;;;8.98;5.38;;;-6.30;99.90;-7.70;97033.00;;;;5049774;28;20390;-65
2021/01/11 08:44:54;;;;;;;7.80;5.70;;;-6.20;99.90;-7.50;97029.00;;;;5050569;28;20316;-63
2021/01/11 08:47:28;;;;;;;22.37;15.07;;;-6.00;99.90;-7.60;97042.00;;;;5048818;28;20517;-63
2021/01/11 08:49:58;;;;;;;17.40;12.03;;;-5.90;99.90;-7.70;97040.00;;;;5045741;28;20466;-65
2021/01/11 08:52:32;;;;;;;14.97;8.60;;;-5.90;99.90;-7.50;97042.00;;;;5050015;28;20463;-64
2021/01/11 08:55:09;;;;;;;10.93;8.13;;;-5.80;99.90;-7.10;97045.00;;;;5050356;28;20525;-65
2021/01/11 08:57:38;;;;;;;8.37;6.77;;;-5.70;99.90;-7.40;97044.00;;;;5049060;28;21106;-64
2021/01/11 09:00:12;;;;;;;4.27;3.83;;;-5.70;99.90;-7.20;97048.00;;;;5050204;28;20465;-65
2021/01/11 09:02:46;;;;;;;13.00;7.00;;;-5.60;99.90;-7.30;97044.00;;;;5049498;28;20470;-65
2021/01/11 09:05:17;;;;;;;14.67;8.47;;;-5.50;99.90;-7.40;97044.00;;;;5049741;28;20455;-63
2021/01/11 09:07:49;;;;;;;11.67;6.00;;;-5.50;99.90;-7.20;97047.00;;;;5040480;28;20463;-64
2021/01/11 09:10:32;;;;;;;10.53;6.13;;;-5.60;99.90;-7.00;97051.00;;;;5061898;28;20478;-63
2021/01/11 09:13:18;;;;;;;9.77;6.00;;;-5.50;99.90;-6.90;97058.00;;;;5049479;28;20531;-65
2021/01/11 09:15:46;;;;;;;8.67;6.80;;;-5.30;99.90;-6.90;97051.00;;;;5050134;28;20474;-65
2021/01/11 09:18:15;;;;;;;8.57;6.20;;;-5.30;99.90;-6.60;97047.00;;;;5048753;28;20520;-63
2021/01/11 09:20:44;;;;;;;11.17;5.93;;;-5.20;99.90;-6.60;97046.00;;;;5049645;28;20536;-65
2021/01/11 09:23:14;;;;;;;12.10;7.07;;;-5.10;99.90;-6.30;97050.00;;;;5047564;28;20481;-64
2021/01/11 09:25:42;;;;;;;8.47;5.47;;;-5.00;99.90;-6.30;97049.00;;;;5047307;28;20483;-65
2021/01/11 09:28:10;;;;;;;6.20;4.40;;;-4.90;99.90;-6.10;97053.00;;;;5044430;28;20500;-64
2021/01/11 09:30:38;;;;;;;7.73;4.60;;;-3.00;99.90;-6.20;97060.00;;;;5042867;28;20842;-65
2021/01/11 09:33:06;;;;;;;7.90;5.10;;;-4.50;99.90;-6.30;97058.00;;;;5045898;28;20474;-65
2021/01/11 09:35:34;;;;;;;6.10;4.43;;;-4.60;99.90;-6.00;97047.00;;;;5046792;28;20524;-64
2021/01/11 09:38:01;;;;;;;6.20;4.43;;;-4.50;99.90;-5.90;97057.00;;;;5046124;28;20474;-63
2021/01/11 09:40:29;;;;;;;7.53;5.53;;;-4.40;99.90;-5.70;97066.00;;;;5045831;28;20845;-64
2021/01/11 09:42:58;;;;;;;6.07;4.83;;;-4.20;99.90;-5.60;97059.00;;;;5045314;28;20459;-61
2021/01/11 09:45:25;;;;;;;8.53;5.53;;;-4.10;99.90;-5.30;97050.00;;;;5047013;28;20552;-65
2021/01/11 09:47:53;;;;;;;7.27;4.93;;;-4.00;99.90;-5.20;97057.00;;;;5046300;28;20470;-63
2021/01/11 09:50:21;;;;;;;9.37;6.43;;;-3.80;99.90;-5.00;97052.00;;;;5046835;28;20469;-64
2021/01/11 09:52:49;;;;;;;6.50;4.90;;;-3.70;99.90;-5.00;97051.00;;;;5043281;28;20483;-64
2021/01/11 09:55:17;;;;;;;5.40;4.50;;;-3.50;99.90;-4.80;97046.00;;;;5033486;28;20469;-64
2021/01/11 09:57:45;;;;;;;6.57;5.67;;;-3.40;99.90;-4.80;97045.00;;;;5048492;28;20456;-63
2021/01/11 10:00:17;;;;;;;5.93;4.37;;;-3.30;99.90;-5.00;97036.00;;;;5048946;28;20525;-65
2021/01/11 10:02:48;;;;;;;5.17;4.30;;;-3.40;99.90;-4.90;97031.00;;;;5049526;28;20459;-65
2021/01/11 10:05:17;;;;;;;7.33;5.00;;;-3.30;99.90;-4.60;97038.00;;;;5049100;28;20461;-65
2021/01/11 10:07:45;;;;;;;7.83;5.80;;;-3.20;99.90;-4.10;97036.00;;;;5046387;28;20588;-66
2021/01/11 10:10:13;;;;;;;10.17;5.10;;;-3.00;99.90;-3.70;97047.00;;;;5047222;28;20482;-64
2021/01/11 10:12:41;;;;;;;7.57;5.30;;;-2.80;99.90;-3.60;97040.00;;;;5030652;28;21090;-66
2021/01/11 10:15:11;;;;;;;4.40;3.80;;;-2.50;99.90;-3.20;97047.00;;;;5029348;28;20509;-62
2021/01/11 10:17:39;;;;;;;7.17;5.60;;;-2.20;99.90;-3.00;97051.00;;;;5048536;28;20459;-65
2021/01/11 10:20:09;;;;;;;5.33;4.37;;;-2.00;99.90;-2.60;97051.00;;;;5047783;28;20463;-66
2021/01/11 10:22:38;;;;;;;3.30;3.00;;;-1.70;99.90;-2.10;97050.00;;;;5048866;28;20550;-66
2021/01/11 10:25:07;;;;;;;6.10;4.27;;;-1.30;99.90;-1.90;97044.00;;;;5048485;28;20459;-61
2021/01/11 10:27:35;;;;;;;5.10;3.77;;;-1.10;99.90;-1.40;97049.00;;;;5048432;28;21027;-63
2021/01/11 10:30:06;;;;;;;6.10;3.80;;;-0.80;99.90;-0.30;97049.00;;;;5048799;28;20462;-65
2021/01/11 10:32:35;;;;;;;4.83;3.90;;;-0.20;99.90;0.70;97061.00;;;;5048699;28;20579;-65
2021/01/11 10:35:05;;;;;;;5.40;3.50;;;0.50;99.90;1.00;97057.00;;;;5048854;28;20466;-65
2021/01/11 10:37:34;;;;;;;4.10;3.07;;;1.30;99.90;0.70;97052.00;;;;5045812;28;21116;-66
2021/01/11 10:40:01;;;;;;;4.30;3.00;;;2.00;99.90;1.90;97053.00;;;;5048077;28;20467;-66
2021/01/11 10:42:29;;;;;;;4.37;3.33;;;2.80;97.10;2.30;97057.00;;;;5047507;28;20515;-65
2021/01/11 10:44:58;;;;;;;6.30;4.60;;;3.30;94.40;3.20;97062.00;;;;5047865;28;20228;-66
2021/01/11 10:47:26;;;;;;;5.07;3.80;;;3.80;94.10;3.40;97038.00;;;;5046534;28;20242;-64
2021/01/11 10:49:54;;;;;;;4.10;3.70;;;4.20;85.30;3.00;97027.00;;;;5048716;28;20303;-64
2021/01/11 10:52:23;;;;;;;4.90;4.07;;;4.70;79.10;3.70;97032.00;;;;5047563;28;20217;-63
2021/01/11 10:54:50;;;;;;;5.40;4.60;;;5.40;75.00;3.30;97023.00;;;;5048364;28;20234;-64
2021/01/11 10:57:18;;;;;;;9.53;5.80;;;5.50;70.40;4.00;97028.00;;;;5047153;28;20747;-64
2021/01/11 10:59:45;;;;;;;8.73;5.67;;;5.70;71.40;3.90;97018.00;;;;5048004;28;20225;-64
2021/01/11 11:02:13;;;;;;;8.80;6.27;;;5.90;67.00;5.30;97019.00;;;;5047194;28;20216;-64
2021/01/11 11:04:41;;;;;;;16.53;9.73;;;6.30;69.30;5.60;97035.00;;;;5046754;28;20702;-63
2021/01/11 11:07:08;;;;;;;6.70;5.30;;;6.60;70.00;4.50;97022.00;;;;5046732;28;20318;-61